Sponsor www.jackysshop.nl


METAR rapporten vliegvelden

   
EBAW - Antwerp
Gewijzigd: 18-12-2018 12:50
Licht bewolkt  
Licht bewolkt  
   Wind: Zuiden 18.5 km/h
Wind: Zuiden 18.5 km/h
Temperatuur: 9°C
Voelt als: 6°C
Dauwpunt: 5°C
Vochtigheid: 76%
Barometer: 1018 hPa
Bewolking: Licht bewolkt
Zicht: meer dan 10 km
Bewolking: Licht bewolkt 1600 ft
EBAW 181150Z 17010KT 9999 FEW016 09/05 Q1018 NOSIG
EBLG - Li├Ęge
Gewijzigd: 18-12-2018 12:50
Licht bewolkt  
Licht bewolkt  
   Wind: Zuiden 20.4 km/h
Wind: Zuiden 20.4 km/h
Temperatuur: 7°C
Voelt als: 3°C
Dauwpunt: 3°C
Vochtigheid: 76%
Barometer: 1019 hPa
Bewolking: Licht bewolkt
Zicht: meer dan 10 km
Bewolking: Licht bewolkt 1600 ft
EBLG 181150Z 17011KT 9999 FEW016 07/03 Q1019 NOSIG
EBCV - Mons/Bergen
Gewijzigd: 18-12-2018 12:25
Licht bewolkt  
Licht bewolkt  
   Wind: Zuiden 20.4 km/h
Wind: Zuiden 20.4 km/h
Temperatuur: 8°C
Voelt als: 5°C
Dauwpunt: 5°C
Vochtigheid: 82%
Barometer: 1018 hPa
Bewolking: Licht bewolkt
Zicht: meer dan 10 km
Bewolking: Licht bewolkt 1100 ft
EBCV 181125Z AUTO 17011KT 9999 FEW011/// 08/05 Q1018 BLU
EHBK - Maastricht
Gewijzigd: 18-12-2018 12:25
Gedeeltelijk bewolkt  
Gedeeltelijk bewolkt  
   Wind: ZZW 24.1 km/h
Wind: ZZW 24.1 km/h
Temperatuur: 8°C
Voelt als: 4°C
Dauwpunt: 4°C
Vochtigheid: 76%
Barometer: 1020 hPa
Bewolking: Gedeeltelijk bewolkt
Zicht: meer dan 10 km
Bewolking: Gedeeltelijk bewolkt
EHBK 181125Z AUTO 20013KT 9999 NSC 08/04 Q1020 NOSIG
ELLX - Luxemburg
Gewijzigd: 18-12-2018 12:50
Nevel, Grotendeels bewolkt  
Nevel, Grotendeels bewolkt  
   Wind: ZZO 13 km/h
Wind: ZZO 13 km/h
Temperatuur: 3°C
Voelt als: -1°C
Dauwpunt: 3°C
Vochtigheid: 100%
Barometer: 1021 hPa
Bewolking: Grotendeels bewolkt
Zicht: 4 km
Bewolking: Grotendeels bewolkt 300 ft
ELLX 181150Z 16007KT 130V190 4000 BR BKN003 03/03 Q1021 BECMG 5000
EBOS - Oostende
Gewijzigd: 18-12-2018 12:50
Gedeeltelijk bewolkt  
Gedeeltelijk bewolkt  
   Wind: Zuiden 29.6 km/h
Wind: Zuiden 29.6 km/h
Temperatuur: 8°C
Voelt als: 4°C
Dauwpunt: 5°C
Vochtigheid: 82%
Barometer: 1016 hPa
Bewolking: Gedeeltelijk bewolkt
Zicht: meer dan 10 km
Bewolking: Licht bewolkt 1000 ft,
Gedeeltelijk bewolkt 1300 ft
EBOS 181150Z 17016KT 9999 FEW010 SCT013 08/05 Q1016 BECMG SCT015

Script ontwikkeld door  Saratoga-weather.org Aangepast voor de template door  Weerstation Leuven